To NAV CANADA Home Page Login to a new session Search on AWWS site Feedback and Comments Disclaimer Vers la page française équivalente Tips FAQ What's new on the site To the Forecasts and Observations / NOTAM section To "File a Flight Plan" website Publications and other links Update of the User's profile FIC Telephone Numbers My Weather Data Folder Route Weather Data Regional Weather Data Local Weather Data To the Forecasts and Observations / NOTAM section
Request Generated 03/29/2015 at 04:21:53 UTC . Weather information available at that time is displayed.

METAR/TAF

OTTAWA/MACDONALD-CARTIER INTL/ON    

METAR CYOW 290400Z 24004KT 15SM SKC M08/M17 A3015 RMK SLP217=
METAR CYOW 290300Z 26003KT 15SM SKC M06/M17 A3014 RMK SLP216=
METAR CYOW 290200Z 30006KT 15SM SKC M05/M16 A3013 RMK SLP211=

TAF CYOW 290238Z 2903/2924 30008KT P6SM SKC
BECMG 2903/2905 VRB03KT
BECMG 2915/2917 20012G22KT
RMK NXT FCST BY 290600Z=
Your time UTC time
Weather data provided by Environment Canada and NAV CANADA